sensor_id;sensor_type;location;lat;lon;timestamp;pressure;altitude;pressure_sealevel;temperature;humidity
76827;BME280;65788;52.284;20.890;2023-07-20T00:01:38;99671.87;;;24.88;42.40
76827;BME280;65788;52.284;20.890;2023-07-20T00:04:08;99667.84;;;24.86;42.41
76827;BME280;65788;52.284;20.890;2023-07-20T00:06:34;99660.66;;;24.84;42.43
76827;BME280;65788;52.284;20.890;2023-07-20T00:09:01;99658.42;;;24.84;42.40
76827;BME280;65788;52.284;20.890;2023-07-20T00:11:28;99655.85;;;24.83;42.47
76827;BME280;65788;52.284;20.890;2023-07-20T00:13:55;99662.29;;;24.82;42.50
76827;BME280;65788;52.284;20.890;2023-07-20T00:16:21;99671.80;;;24.82;42.49
76827;BME280;65788;52.284;20.890;2023-07-20T00:18:48;99679.91;;;24.82;42.53
76827;BME280;65788;52.284;20.890;2023-07-20T00:21:15;99685.73;;;24.81;42.57
76827;BME280;65788;52.284;20.890;2023-07-20T00:23:42;99690.94;;;24.81;42.61
76827;BME280;65788;52.284;20.890;2023-07-20T00:26:09;99685.89;;;24.81;42.64
76827;BME280;65788;52.284;20.890;2023-07-20T00:28:36;99677.67;;;24.81;42.63
76827;BME280;65788;52.284;20.890;2023-07-20T00:31:02;99666.31;;;24.79;42.62
76827;BME280;65788;52.284;20.890;2023-07-20T00:33:29;99661.44;;;24.77;42.67
76827;BME280;65788;52.284;20.890;2023-07-20T00:35:56;99658.24;;;24.76;42.67
76827;BME280;65788;52.284;20.890;2023-07-20T00:38:23;99651.08;;;24.76;42.66
76827;BME280;65788;52.284;20.890;2023-07-20T00:40:50;99652.26;;;24.75;42.69
76827;BME280;65788;52.284;20.890;2023-07-20T00:43:17;99653.21;;;24.74;42.69
76827;BME280;65788;52.284;20.890;2023-07-20T00:45:44;99656.96;;;24.74;42.69
76827;BME280;65788;52.284;20.890;2023-07-20T00:48:14;99658.91;;;24.73;42.70
76827;BME280;65788;52.284;20.890;2023-07-20T00:50:41;99657.79;;;24.72;42.76
76827;BME280;65788;52.284;20.890;2023-07-20T00:53:09;99652.47;;;24.72;42.72
76827;BME280;65788;52.284;20.890;2023-07-20T00:55:36;99651.23;;;24.72;42.77
76827;BME280;65788;52.284;20.890;2023-07-20T00:58:03;99654.27;;;24.72;42.77
76827;BME280;65788;52.284;20.890;2023-07-20T01:00:31;99659.69;;;24.70;42.77
76827;BME280;65788;52.284;20.890;2023-07-20T01:02:57;99659.58;;;24.70;42.76
76827;BME280;65788;52.284;20.890;2023-07-20T01:05:36;99657.45;;;24.69;42.77
76827;BME280;65788;52.284;20.890;2023-07-20T01:08:14;99658.45;;;24.68;42.81
76827;BME280;65788;52.284;20.890;2023-07-20T01:10:56;99658.85;;;24.68;42.82
76827;BME280;65788;52.284;20.890;2023-07-20T01:13:25;99658.79;;;24.66;42.82
76827;BME280;65788;52.284;20.890;2023-07-20T01:15:57;99649.89;;;24.67;42.79
76827;BME280;65788;52.284;20.890;2023-07-20T01:18:26;99646.92;;;24.66;42.81
76827;BME280;65788;52.284;20.890;2023-07-20T01:21:03;99650.84;;;24.65;42.82
76827;BME280;65788;52.284;20.890;2023-07-20T01:32:10;99662.27;;;24.61;42.91
76827;BME280;65788;52.284;20.890;2023-07-20T01:34:38;99653.05;;;24.62;42.91
76827;BME280;65788;52.284;20.890;2023-07-20T01:37:06;99652.16;;;24.62;42.90
76827;BME280;65788;52.284;20.890;2023-07-20T01:39:34;99648.27;;;24.58;42.95
76827;BME280;65788;52.284;20.890;2023-07-20T01:42:01;99648.02;;;24.61;42.91
76827;BME280;65788;52.284;20.890;2023-07-20T01:44:28;99649.84;;;24.56;43.02
76827;BME280;65788;52.284;20.890;2023-07-20T01:46:56;99654.38;;;24.56;43.02
76827;BME280;65788;52.284;20.890;2023-07-20T01:49:22;99659.23;;;24.56;43.02
76827;BME280;65788;52.284;20.890;2023-07-20T01:51:49;99658.45;;;24.57;43.02
76827;BME280;65788;52.284;20.890;2023-07-20T01:54:16;99660.14;;;24.58;43.02
76827;BME280;65788;52.284;20.890;2023-07-20T01:56:43;99658.34;;;24.58;43.02
76827;BME280;65788;52.284;20.890;2023-07-20T01:59:09;99660.48;;;24.57;43.07
76827;BME280;65788;52.284;20.890;2023-07-20T02:01:36;99658.40;;;24.57;43.08
76827;BME280;65788;52.284;20.890;2023-07-20T02:04:03;99662.81;;;24.56;43.12
76827;BME280;65788;52.284;20.890;2023-07-20T02:06:30;99670.42;;;24.55;43.14
76827;BME280;65788;52.284;20.890;2023-07-20T02:08:56;99673.49;;;24.56;43.16
76827;BME280;65788;52.284;20.890;2023-07-20T02:11:23;99669.46;;;24.54;43.15
76827;BME280;65788;52.284;20.890;2023-07-20T02:13:50;99672.14;;;24.53;43.24
76827;BME280;65788;52.284;20.890;2023-07-20T02:16:17;99672.77;;;24.54;43.26
76827;BME280;65788;52.284;20.890;2023-07-20T02:18:44;99676.23;;;24.53;43.25
76827;BME280;65788;52.284;20.890;2023-07-20T02:21:10;99672.80;;;24.52;43.28
76827;BME280;65788;52.284;20.890;2023-07-20T02:23:37;99674.82;;;24.50;43.31
76827;BME280;65788;52.284;20.890;2023-07-20T02:26:04;99671.14;;;24.51;43.29
76827;BME280;65788;52.284;20.890;2023-07-20T02:28:31;99667.67;;;24.50;43.28
76827;BME280;65788;52.284;20.890;2023-07-20T02:30:58;99666.65;;;24.50;43.28
76827;BME280;65788;52.284;20.890;2023-07-20T02:33:27;99665.92;;;24.48;43.35
76827;BME280;65788;52.284;20.890;2023-07-20T02:35:53;99661.77;;;24.48;43.38
76827;BME280;65788;52.284;20.890;2023-07-20T02:38:20;99652.38;;;24.47;43.36
76827;BME280;65788;52.284;20.890;2023-07-20T02:40:47;99653.61;;;24.47;43.36
76827;BME280;65788;52.284;20.890;2023-07-20T02:43:13;99652.60;;;24.47;43.41
76827;BME280;65788;52.284;20.890;2023-07-20T02:45:41;99648.69;;;24.47;43.40
76827;BME280;65788;52.284;20.890;2023-07-20T02:48:09;99647.45;;;24.46;43.40
76827;BME280;65788;52.284;20.890;2023-07-20T02:50:36;99647.84;;;24.46;43.40
76827;BME280;65788;52.284;20.890;2023-07-20T02:53:03;99647.45;;;24.47;43.37
76827;BME280;65788;52.284;20.890;2023-07-20T02:55:29;99654.05;;;24.46;43.39
76827;BME280;65788;52.284;20.890;2023-07-20T02:57:56;99657.91;;;24.45;43.39
76827;BME280;65788;52.284;20.890;2023-07-20T03:00:23;99655.34;;;24.45;43.40
76827;BME280;65788;52.284;20.890;2023-07-20T03:02:51;99653.88;;;24.43;43.40
76827;BME280;65788;52.284;20.890;2023-07-20T03:05:22;99658.41;;;24.43;43.36
76827;BME280;65788;52.284;20.890;2023-07-20T03:07:52;99655.73;;;24.43;43.38
76827;BME280;65788;52.284;20.890;2023-07-20T03:10:19;99659.48;;;24.43;43.41
76827;BME280;65788;52.284;20.890;2023-07-20T03:12:46;99664.39;;;24.42;43.41
76827;BME280;65788;52.284;20.890;2023-07-20T03:15:14;99661.54;;;24.41;43.40
76827;BME280;65788;52.284;20.890;2023-07-20T03:17:41;99662.33;;;24.41;43.41
76827;BME280;65788;52.284;20.890;2023-07-20T03:20:09;99670.44;;;24.43;43.39
76827;BME280;65788;52.284;20.890;2023-07-20T03:22:36;99673.66;;;24.41;43.42
76827;BME280;65788;52.284;20.890;2023-07-20T03:25:04;99670.49;;;24.41;43.42
76827;BME280;65788;52.284;20.890;2023-07-20T03:27:31;99672.55;;;24.41;43.43
76827;BME280;65788;52.284;20.890;2023-07-20T03:30:01;99675.06;;;24.40;43.45
76827;BME280;65788;52.284;20.890;2023-07-20T03:32:28;99674.16;;;24.40;43.46
76827;BME280;65788;52.284;20.890;2023-07-20T03:34:54;99685.29;;;24.38;43.57
76827;BME280;65788;52.284;20.890;2023-07-20T03:37:21;99701.61;;;24.33;43.80
76827;BME280;65788;52.284;20.890;2023-07-20T03:39:48;99712.75;;;24.28;43.94
76827;BME280;65788;52.284;20.890;2023-07-20T03:42:16;99724.20;;;24.05;44.68
76827;BME280;65788;52.284;20.890;2023-07-20T03:44:43;99734.38;;;23.69;45.70
76827;BME280;65788;52.284;20.890;2023-07-20T03:47:09;99735.23;;;23.77;45.48
76827;BME280;65788;52.284;20.890;2023-07-20T03:49:37;99728.84;;;24.14;44.54
76827;BME280;65788;52.284;20.890;2023-07-20T03:52:04;99723.13;;;24.22;44.27
76827;BME280;65788;52.284;20.890;2023-07-20T03:54:31;99727.10;;;24.24;44.27
76827;BME280;65788;52.284;20.890;2023-07-20T03:56:58;99729.81;;;24.26;44.23
76827;BME280;65788;52.284;20.890;2023-07-20T03:59:26;99724.66;;;24.26;44.23
76827;BME280;65788;52.284;20.890;2023-07-20T04:01:54;99729.86;;;24.27;44.24
76827;BME280;65788;52.284;20.890;2023-07-20T04:04:24;99735.84;;;24.25;44.31
76827;BME280;65788;52.284;20.890;2023-07-20T04:06:55;99738.13;;;24.25;44.32
76827;BME280;65788;52.284;20.890;2023-07-20T04:09:21;99738.18;;;24.25;44.31
76827;BME280;65788;52.284;20.890;2023-07-20T04:11:48;99741.26;;;24.26;44.37
76827;BME280;65788;52.284;20.890;2023-07-20T04:14:35;99751.44;;;24.24;44.52
76827;BME280;65788;52.284;20.890;2023-07-20T04:17:02;99759.67;;;24.21;44.66
76827;BME280;65788;52.284;20.890;2023-07-20T04:19:30;99759.27;;;24.18;44.85
76827;BME280;65788;52.284;20.890;2023-07-20T04:21:57;99756.58;;;24.07;45.24
76827;BME280;65788;52.284;20.890;2023-07-20T04:24:24;99758.92;;;24.06;45.38
76827;BME280;65788;52.284;20.890;2023-07-20T04:26:50;99763.59;;;23.95;45.80
76827;BME280;65788;52.284;20.890;2023-07-20T04:29:17;99779.40;;;23.67;46.69
76827;BME280;65788;52.284;20.890;2023-07-20T04:31:44;99784.15;;;23.55;47.12
76827;BME280;65788;52.284;20.890;2023-07-20T04:34:11;99790.24;;;23.38;47.68
76827;BME280;65788;52.284;20.890;2023-07-20T04:36:37;99791.48;;;23.29;47.99
76827;BME280;65788;52.284;20.890;2023-07-20T04:39:04;99792.48;;;23.23;48.24
76827;BME280;65788;52.284;20.890;2023-07-20T04:41:32;99789.25;;;23.39;47.68
76827;BME280;65788;52.284;20.890;2023-07-20T04:43:59;99792.33;;;23.45;47.55
76827;BME280;65788;52.284;20.890;2023-07-20T04:46:26;99797.34;;;23.33;47.96
76827;BME280;65788;52.284;20.890;2023-07-20T04:48:53;99798.23;;;23.38;47.67
76827;BME280;65788;52.284;20.890;2023-07-20T04:51:19;99798.77;;;23.42;47.74
76827;BME280;65788;52.284;20.890;2023-07-20T04:53:47;99804.38;;;23.13;48.69
76827;BME280;65788;52.284;20.890;2023-07-20T04:56:14;99804.73;;;23.19;48.50
76827;BME280;65788;52.284;20.890;2023-07-20T04:58:41;99806.05;;;23.27;48.18
76827;BME280;65788;52.284;20.890;2023-07-20T05:01:10;99798.96;;;23.28;48.22
76827;BME280;65788;52.284;20.890;2023-07-20T05:03:37;99800.13;;;23.50;47.61
76827;BME280;65788;52.284;20.890;2023-07-20T05:06:04;99799.20;;;23.63;47.09
76827;BME280;65788;52.284;20.890;2023-07-20T05:08:30;99804.20;;;23.62;47.28
76827;BME280;65788;52.284;20.890;2023-07-20T05:10:58;99803.73;;;23.43;47.87
76827;BME280;65788;52.284;20.890;2023-07-20T05:13:28;99797.69;;;23.45;47.92
76827;BME280;65788;52.284;20.890;2023-07-20T05:15:55;99803.86;;;23.43;47.97
76827;BME280;65788;52.284;20.890;2023-07-20T05:18:23;99802.34;;;23.25;48.68
76827;BME280;65788;52.284;20.890;2023-07-20T05:20:50;99801.13;;;23.09;49.33
76827;BME280;65788;52.284;20.890;2023-07-20T05:23:18;99805.29;;;23.05;49.43
76827;BME280;65788;52.284;20.890;2023-07-20T05:25:45;99805.80;;;23.16;49.00
76827;BME280;65788;52.284;20.890;2023-07-20T05:28:12;99802.95;;;23.29;48.39
76827;BME280;65788;52.284;20.890;2023-07-20T05:30:40;99797.34;;;23.22;48.75
76827;BME280;65788;52.284;20.890;2023-07-20T05:33:06;99794.89;;;23.00;49.50
76827;BME280;65788;52.284;20.890;2023-07-20T05:35:33;99796.30;;;22.99;49.31
76827;BME280;65788;52.284;20.890;2023-07-20T05:38:00;99793.50;;;23.00;49.14
76827;BME280;65788;52.284;20.890;2023-07-20T05:40:27;99794.22;;;23.15;48.51
76827;BME280;65788;52.284;20.890;2023-07-20T05:42:53;99794.12;;;23.59;46.98
76827;BME280;65788;52.284;20.890;2023-07-20T05:45:23;99791.80;;;23.75;46.83
76827;BME280;65788;52.284;20.890;2023-07-20T05:47:50;99792.95;;;23.79;47.15
76827;BME280;65788;52.284;20.890;2023-07-20T05:50:16;99795.27;;;23.82;47.42
76827;BME280;65788;52.284;20.890;2023-07-20T05:52:43;99789.30;;;23.84;47.55
76827;BME280;65788;52.284;20.890;2023-07-20T05:55:10;99790.86;;;23.88;48.15
76827;BME280;65788;52.284;20.890;2023-07-20T05:57:36;99786.03;;;23.91;48.82
76827;BME280;65788;52.284;20.890;2023-07-20T06:00:09;99786.19;;;23.88;48.96
76827;BME280;65788;52.284;20.890;2023-07-20T06:02:36;99787.40;;;23.63;49.26
76827;BME280;65788;52.284;20.890;2023-07-20T06:05:03;99791.20;;;23.76;48.88
76827;BME280;65788;52.284;20.890;2023-07-20T06:07:29;99787.65;;;23.79;48.78
76827;BME280;65788;52.284;20.890;2023-07-20T06:09:57;99788.61;;;23.82;48.67
76827;BME280;65788;52.284;20.890;2023-07-20T06:12:24;99787.70;;;23.65;49.08
76827;BME280;65788;52.284;20.890;2023-07-20T06:14:51;99782.52;;;23.61;49.14
76827;BME280;65788;52.284;20.890;2023-07-20T06:17:18;99783.51;;;23.78;48.70
76827;BME280;65788;52.284;20.890;2023-07-20T06:19:44;99779.70;;;23.71;48.83
76827;BME280;65788;52.284;20.890;2023-07-20T06:22:11;99778.48;;;23.86;48.30
76827;BME280;65788;52.284;20.890;2023-07-20T06:24:38;99781.11;;;23.96;48.49
76827;BME280;65788;52.284;20.890;2023-07-20T06:27:05;99779.01;;;23.94;48.72
76827;BME280;65788;52.284;20.890;2023-07-20T06:29:32;99781.93;;;23.10;51.12
76827;BME280;65788;52.284;20.890;2023-07-20T06:31:59;99788.25;;;22.59;52.36
76827;BME280;65788;52.284;20.890;2023-07-20T06:34:26;99784.69;;;22.24;53.63
76827;BME280;65788;52.284;20.890;2023-07-20T06:36:52;99783.29;;;22.17;53.81
76827;BME280;65788;52.284;20.890;2023-07-20T06:39:19;99785.85;;;22.24;53.38
76827;BME280;65788;52.284;20.890;2023-07-20T06:41:46;99782.60;;;22.26;53.38
76827;BME280;65788;52.284;20.890;2023-07-20T06:44:13;99782.27;;;22.34;52.86
76827;BME280;65788;52.284;20.890;2023-07-20T06:46:40;99778.27;;;22.20;53.53
76827;BME280;65788;52.284;20.890;2023-07-20T06:49:07;99770.34;;;22.73;51.62
76827;BME280;65788;52.284;20.890;2023-07-20T06:51:36;99770.77;;;23.04;50.46
76827;BME280;65788;52.284;20.890;2023-07-20T06:54:04;99770.38;;;23.13;49.86
76827;BME280;65788;52.284;20.890;2023-07-20T06:56:31;99774.33;;;23.12;50.16
76827;BME280;65788;52.284;20.890;2023-07-20T06:58:58;99773.81;;;23.01;51.20
76827;BME280;65788;52.284;20.890;2023-07-20T07:01:25;99775.84;;;23.27;50.14
76827;BME280;65788;52.284;20.890;2023-07-20T07:03:52;99775.42;;;23.19;50.69
76827;BME280;65788;52.284;20.890;2023-07-20T07:06:18;99773.45;;;23.13;50.61
76827;BME280;65788;52.284;20.890;2023-07-20T07:08:46;99768.48;;;23.13;50.39
76827;BME280;65788;52.284;20.890;2023-07-20T07:11:13;99766.88;;;23.29;50.34
76827;BME280;65788;52.284;20.890;2023-07-20T07:13:40;99771.68;;;23.37;50.30
76827;BME280;65788;52.284;20.890;2023-07-20T07:16:07;99777.02;;;23.15;51.29
76827;BME280;65788;52.284;20.890;2023-07-20T07:18:34;99778.08;;;23.29;50.50
76827;BME280;65788;52.284;20.890;2023-07-20T07:21:03;99783.91;;;22.74;51.55
76827;BME280;65788;52.284;20.890;2023-07-20T07:23:30;99784.73;;;23.15;50.50
76827;BME280;65788;52.284;20.890;2023-07-20T07:25:57;99787.84;;;23.37;50.54
76827;BME280;65788;52.284;20.890;2023-07-20T07:28:23;99788.16;;;23.10;51.15
76827;BME280;65788;52.284;20.890;2023-07-20T07:30:50;99794.33;;;22.77;51.77
76827;BME280;65788;52.284;20.890;2023-07-20T07:33:18;99800.24;;;21.96;54.28
76827;BME280;65788;52.284;20.890;2023-07-20T07:35:45;99802.25;;;22.18;53.45
76827;BME280;65788;52.284;20.890;2023-07-20T07:38:11;99806.38;;;22.55;52.41
76827;BME280;65788;52.284;20.890;2023-07-20T07:40:38;99818.79;;;22.49;52.87
76827;BME280;65788;52.284;20.890;2023-07-20T07:43:05;99822.48;;;22.47;52.78
76827;BME280;65788;52.284;20.890;2023-07-20T07:45:34;99828.52;;;22.37;53.41
76827;BME280;65788;52.284;20.890;2023-07-20T07:48:05;99826.95;;;21.70;55.45
76827;BME280;65788;52.284;20.890;2023-07-20T07:50:33;99829.31;;;21.75;55.18
76827;BME280;65788;52.284;20.890;2023-07-20T07:53:00;99836.31;;;21.30;56.72
76827;BME280;65788;52.284;20.890;2023-07-20T07:55:26;99835.06;;;22.23;53.26
76827;BME280;65788;52.284;20.890;2023-07-20T07:57:55;99834.38;;;22.72;52.15
76827;BME280;65788;52.284;20.890;2023-07-20T08:00:22;99833.27;;;23.03;49.76
76827;BME280;65788;52.284;20.890;2023-07-20T08:02:50;99837.66;;;23.50;48.58
76827;BME280;65788;52.284;20.890;2023-07-20T08:05:30;99841.88;;;23.38;49.23
76827;BME280;65788;52.284;20.890;2023-07-20T08:07:57;99840.42;;;22.98;50.54
76827;BME280;65788;52.284;20.890;2023-07-20T08:10:24;99837.90;;;23.69;49.30
76827;BME280;65788;52.284;20.890;2023-07-20T08:12:51;99840.52;;;23.98;48.10
76827;BME280;65788;52.284;20.890;2023-07-20T08:15:19;99839.66;;;24.09;46.71
76827;BME280;65788;52.284;20.890;2023-07-20T08:17:45;99841.98;;;24.13;46.30
76827;BME280;65788;52.284;20.890;2023-07-20T08:20:13;99843.73;;;24.15;45.85
76827;BME280;65788;52.284;20.890;2023-07-20T08:22:40;99847.38;;;24.23;45.53
76827;BME280;65788;52.284;20.890;2023-07-20T08:25:08;99843.08;;;24.32;45.62
76827;BME280;65788;52.284;20.890;2023-07-20T08:27:36;99843.17;;;24.29;45.31
76827;BME280;65788;52.284;20.890;2023-07-20T08:30:04;99850.64;;;24.28;46.37
76827;BME280;65788;52.284;20.890;2023-07-20T08:32:32;99858.35;;;24.26;46.47
76827;BME280;65788;52.284;20.890;2023-07-20T08:34:59;99860.78;;;24.29;47.98
76827;BME280;65788;52.284;20.890;2023-07-20T08:37:26;99861.52;;;24.30;46.28
76827;BME280;65788;52.284;20.890;2023-07-20T08:39:52;99862.96;;;24.31;45.89
76827;BME280;65788;52.284;20.890;2023-07-20T08:42:20;99862.02;;;24.31;46.87
76827;BME280;65788;52.284;20.890;2023-07-20T08:44:49;99863.38;;;24.33;47.28
76827;BME280;65788;52.284;20.890;2023-07-20T08:47:20;99861.53;;;24.23;47.57
76827;BME280;65788;52.284;20.890;2023-07-20T08:49:48;99866.53;;;23.77;49.13
76827;BME280;65788;52.284;20.890;2023-07-20T08:52:15;99870.98;;;23.92;49.38
76827;BME280;65788;52.284;20.890;2023-07-20T08:54:42;99875.29;;;23.43;50.80
76827;BME280;65788;52.284;20.890;2023-07-20T08:57:10;99874.29;;;23.60;51.07
76827;BME280;65788;52.284;20.890;2023-07-20T08:59:41;99872.09;;;24.24;50.41
76827;BME280;65788;52.284;20.890;2023-07-20T09:02:08;99873.14;;;24.53;46.91
76827;BME280;65788;52.284;20.890;2023-07-20T09:04:39;99881.05;;;24.34;48.94
76827;BME280;65788;52.284;20.890;2023-07-20T09:07:06;99877.24;;;24.41;47.29
76827;BME280;65788;52.284;20.890;2023-07-20T09:09:40;99878.05;;;24.14;47.75
76827;BME280;65788;52.284;20.890;2023-07-20T09:12:15;99878.52;;;24.47;46.21
76827;BME280;65788;52.284;20.890;2023-07-20T09:14:43;99880.02;;;24.54;44.98
76827;BME280;65788;52.284;20.890;2023-07-20T09:17:14;99882.05;;;24.39;47.18
76827;BME280;65788;52.284;20.890;2023-07-20T09:19:48;99888.41;;;24.03;50.11
76827;BME280;65788;52.284;20.890;2023-07-20T09:22:16;99880.55;;;24.26;46.84
76827;BME280;65788;52.284;20.890;2023-07-20T09:24:44;99880.14;;;24.57;44.78
76827;BME280;65788;52.284;20.890;2023-07-20T09:27:11;99878.65;;;24.64;44.79
76827;BME280;65788;52.284;20.890;2023-07-20T09:29:57;99882.15;;;24.46;46.65
76827;BME280;65788;52.284;20.890;2023-07-20T09:32:23;99882.64;;;23.85;49.60
76827;BME280;65788;52.284;20.890;2023-07-20T09:34:51;99886.31;;;23.71;50.00
76827;BME280;65788;52.284;20.890;2023-07-20T09:37:22;99884.93;;;23.42;50.87
76827;BME280;65788;52.284;20.890;2023-07-20T09:39:53;99884.56;;;23.29;51.08
76827;BME280;65788;52.284;20.890;2023-07-20T09:42:21;99884.41;;;23.20;51.07
76827;BME280;65788;52.284;20.890;2023-07-20T09:44:49;99883.95;;;23.24;50.85
76827;BME280;65788;52.284;20.890;2023-07-20T09:47:24;99881.56;;;23.40;50.40
76827;BME280;65788;52.284;20.890;2023-07-20T09:49:58;99881.11;;;23.49;49.93
76827;BME280;65788;52.284;20.890;2023-07-20T09:52:26;99879.04;;;23.71;49.06
76827;BME280;65788;52.284;20.890;2023-07-20T09:54:54;99882.21;;;23.85;48.77
76827;BME280;65788;52.284;20.890;2023-07-20T09:57:21;99882.96;;;23.67;49.07
76827;BME280;65788;52.284;20.890;2023-07-20T09:59:48;99888.05;;;23.28;50.68
76827;BME280;65788;52.284;20.890;2023-07-20T10:02:30;99888.45;;;23.15;51.05
76827;BME280;65788;52.284;20.890;2023-07-20T10:05:02;99890.96;;;23.30;51.61
76827;BME280;65788;52.284;20.890;2023-07-20T10:07:31;99887.53;;;24.65;50.83
76827;BME280;65788;52.284;20.890;2023-07-20T10:10:01;99883.67;;;25.14;49.25
76827;BME280;65788;52.284;20.890;2023-07-20T10:12:30;99879.83;;;25.47;49.36
76827;BME280;65788;52.284;20.890;2023-07-20T10:15:12;99878.70;;;25.32;49.14
76827;BME280;65788;52.284;20.890;2023-07-20T10:18:07;99881.48;;;25.32;46.86
76827;BME280;65788;52.284;20.890;2023-07-20T10:20:36;99878.97;;;25.26;49.32
76827;BME280;65788;52.284;20.890;2023-07-20T10:23:06;99880.84;;;24.59;51.01
76827;BME280;65788;52.284;20.890;2023-07-20T10:25:33;99883.13;;;24.50;51.33
76827;BME280;65788;52.284;20.890;2023-07-20T10:28:05;99883.84;;;24.33;50.99
76827;BME280;65788;52.284;20.890;2023-07-20T10:30:36;99884.89;;;24.63;49.22
76827;BME280;65788;52.284;20.890;2023-07-20T10:33:05;99877.86;;;25.05;45.49
76827;BME280;65788;52.284;20.890;2023-07-20T10:35:56;99882.48;;;24.57;49.45
76827;BME280;65788;52.284;20.890;2023-07-20T10:41:18;99881.33;;;24.05;51.42
76827;BME280;65788;52.284;20.890;2023-07-20T10:43:46;99877.48;;;24.67;46.27
76827;BME280;65788;52.284;20.890;2023-07-20T10:46:14;99879.64;;;24.70;48.67
76827;BME280;65788;52.284;20.890;2023-07-20T10:49:03;99873.89;;;24.95;46.61
76827;BME280;65788;52.284;20.890;2023-07-20T10:51:42;99875.41;;;25.09;46.67
76827;BME280;65788;52.284;20.890;2023-07-20T10:56:59;99861.92;;;24.65;46.99
76827;BME280;65788;52.284;20.890;2023-07-20T10:59:46;99859.94;;;24.90;45.14
76827;BME280;65788;52.284;20.890;2023-07-20T11:02:18;99856.52;;;25.00;44.52
76827;BME280;65788;52.284;20.890;2023-07-20T11:04:47;99864.88;;;24.58;47.54
76827;BME280;65788;52.284;20.890;2023-07-20T11:07:16;99865.02;;;24.46;48.06
76827;BME280;65788;52.284;20.890;2023-07-20T11:09:43;99866.41;;;24.58;47.66
76827;BME280;65788;52.284;20.890;2023-07-20T11:12:14;99869.35;;;24.39;48.62
76827;BME280;65788;52.284;20.890;2023-07-20T11:14:43;99865.14;;;24.36;48.20
76827;BME280;65788;52.284;20.890;2023-07-20T11:17:12;99864.59;;;24.15;48.67
76827;BME280;65788;52.284;20.890;2023-07-20T11:19:40;99862.11;;;24.22;48.29
76827;BME280;65788;52.284;20.890;2023-07-20T11:22:10;99859.69;;;24.33;48.31
76827;BME280;65788;52.284;20.890;2023-07-20T11:24:40;99868.54;;;24.33;48.13
76827;BME280;65788;52.284;20.890;2023-07-20T11:27:06;99869.89;;;24.29;48.04
76827;BME280;65788;52.284;20.890;2023-07-20T11:29:34;99865.13;;;24.13;48.48
76827;BME280;65788;52.284;20.890;2023-07-20T11:32:03;99863.65;;;24.24;48.43
76827;BME280;65788;52.284;20.890;2023-07-20T11:34:31;99855.83;;;24.42;47.49
76827;BME280;65788;52.284;20.890;2023-07-20T11:37:00;99854.58;;;24.07;48.39
76827;BME280;65788;52.284;20.890;2023-07-20T11:39:28;99849.78;;;24.23;47.92
76827;BME280;65788;52.284;20.890;2023-07-20T11:41:56;99847.73;;;24.33;47.35
76827;BME280;65788;52.284;20.890;2023-07-20T11:44:27;99841.77;;;24.37;47.92
76827;BME280;65788;52.284;20.890;2023-07-20T11:49:29;99846.25;;;24.49;47.39
76827;BME280;65788;52.284;20.890;2023-07-20T11:51:57;99841.49;;;24.58;46.53
76827;BME280;65788;52.284;20.890;2023-07-20T11:54:24;99839.69;;;24.68;45.80
76827;BME280;65788;52.284;20.890;2023-07-20T11:56:54;99836.58;;;24.72;45.52
76827;BME280;65788;52.284;20.890;2023-07-20T11:59:24;99841.83;;;24.64;46.48
76827;BME280;65788;52.284;20.890;2023-07-20T12:01:52;99839.17;;;24.53;46.74
76827;BME280;65788;52.284;20.890;2023-07-20T12:04:19;99839.15;;;24.58;46.71
76827;BME280;65788;52.284;20.890;2023-07-20T12:06:46;99844.13;;;24.57;46.35
76827;BME280;65788;52.284;20.890;2023-07-20T12:09:15;99837.87;;;24.65;46.13
76827;BME280;65788;52.284;20.890;2023-07-20T12:11:44;99837.77;;;24.65;46.44
76827;BME280;65788;52.284;20.890;2023-07-20T12:14:14;99840.16;;;24.48;47.12
76827;BME280;65788;52.284;20.890;2023-07-20T12:16:41;99841.67;;;24.41;47.05
76827;BME280;65788;52.284;20.890;2023-07-20T12:19:10;99845.14;;;24.23;47.45
76827;BME280;65788;52.284;20.890;2023-07-20T12:21:41;99841.48;;;24.13;47.74
76827;BME280;65788;52.284;20.890;2023-07-20T12:24:10;99839.98;;;24.14;47.68
76827;BME280;65788;52.284;20.890;2023-07-20T12:26:37;99836.36;;;24.08;47.94
76827;BME280;65788;52.284;20.890;2023-07-20T12:29:04;99834.48;;;24.28;47.02
76827;BME280;65788;52.284;20.890;2023-07-20T12:31:34;99837.69;;;24.48;46.60
76827;BME280;65788;52.284;20.890;2023-07-20T12:34:02;99838.42;;;24.49;46.76
76827;BME280;65788;52.284;20.890;2023-07-20T12:36:30;99838.98;;;24.56;46.25
76827;BME280;65788;52.284;20.890;2023-07-20T12:38:58;99833.23;;;24.59;46.20
76827;BME280;65788;52.284;20.890;2023-07-20T12:41:24;99828.13;;;24.64;46.14
76827;BME280;65788;52.284;20.890;2023-07-20T12:43:51;99830.05;;;24.60;45.99
76827;BME280;65788;52.284;20.890;2023-07-20T12:46:20;99824.84;;;24.60;45.95
76827;BME280;65788;52.284;20.890;2023-07-20T12:48:46;99824.94;;;24.57;46.25
76827;BME280;65788;52.284;20.890;2023-07-20T12:51:13;99819.39;;;24.54;46.50
76827;BME280;65788;52.284;20.890;2023-07-20T12:53:41;99814.06;;;24.53;47.89
76827;BME280;65788;52.284;20.890;2023-07-20T12:56:07;99810.94;;;24.44;47.93
76827;BME280;65788;52.284;20.890;2023-07-20T12:58:34;99802.88;;;24.53;46.91
76827;BME280;65788;52.284;20.890;2023-07-20T13:01:01;99803.18;;;24.57;47.25
76827;BME280;65788;52.284;20.890;2023-07-20T13:03:28;99795.92;;;24.58;47.82
76827;BME280;65788;52.284;20.890;2023-07-20T13:05:55;99791.70;;;24.75;49.28
76827;BME280;65788;52.284;20.890;2023-07-20T13:08:23;99787.59;;;24.84;46.72
76827;BME280;65788;52.284;20.890;2023-07-20T13:10:54;99781.55;;;24.68;46.21
76827;BME280;65788;52.284;20.890;2023-07-20T13:13:21;99779.95;;;24.62;46.96